sensor_id;sensor_type;location;lat;lon;timestamp;pressure;altitude;pressure_sealevel;temperature;humidity
37200;BME280;23096;50.892;16.746;2023-02-02T00:01:44;98554.34;;;2.59;74.82
37200;BME280;23096;50.892;16.746;2023-02-02T00:04:14;98560.27;;;2.60;74.86
37200;BME280;23096;50.892;16.746;2023-02-02T00:06:40;98561.45;;;2.60;74.89
37200;BME280;23096;50.892;16.746;2023-02-02T00:09:05;98550.07;;;2.61;74.93
37200;BME280;23096;50.892;16.746;2023-02-02T00:11:31;98551.77;;;2.61;74.92
37200;BME280;23096;50.892;16.746;2023-02-02T00:13:56;98546.33;;;2.62;74.85
37200;BME280;23096;50.892;16.746;2023-02-02T00:18:50;98553.61;;;2.63;75.00
37200;BME280;23096;50.892;16.746;2023-02-02T00:21:16;98553.77;;;2.64;75.10
37200;BME280;23096;50.892;16.746;2023-02-02T00:23:41;98556.30;;;2.66;75.00
37200;BME280;23096;50.892;16.746;2023-02-02T00:26:07;98560.02;;;2.67;74.97
37200;BME280;23096;50.892;16.746;2023-02-02T00:28:32;98558.63;;;2.69;75.11
37200;BME280;23096;50.892;16.746;2023-02-02T00:30:58;98555.23;;;2.71;75.18
37200;BME280;23096;50.892;16.746;2023-02-02T00:33:23;98555.05;;;2.71;75.15
37200;BME280;23096;50.892;16.746;2023-02-02T00:35:50;98553.00;;;2.72;75.05
37200;BME280;23096;50.892;16.746;2023-02-02T00:38:16;98555.89;;;2.72;75.07
37200;BME280;23096;50.892;16.746;2023-02-02T00:40:41;98559.12;;;2.72;75.00
37200;BME280;23096;50.892;16.746;2023-02-02T00:43:08;98562.85;;;2.72;74.94
37200;BME280;23096;50.892;16.746;2023-02-02T00:45:35;98562.69;;;2.72;75.12
37200;BME280;23096;50.892;16.746;2023-02-02T00:48:00;98572.86;;;2.72;75.03
37200;BME280;23096;50.892;16.746;2023-02-02T00:50:26;98572.52;;;2.72;75.08
37200;BME280;23096;50.892;16.746;2023-02-02T00:52:52;98571.99;;;2.73;75.01
37200;BME280;23096;50.892;16.746;2023-02-02T00:55:18;98571.81;;;2.74;75.09
37200;BME280;23096;50.892;16.746;2023-02-02T00:57:44;98571.80;;;2.75;75.18
37200;BME280;23096;50.892;16.746;2023-02-02T01:00:13;98573.33;;;2.75;75.03
37200;BME280;23096;50.892;16.746;2023-02-02T01:02:39;98572.81;;;2.76;75.08
37200;BME280;23096;50.892;16.746;2023-02-02T01:05:05;98576.03;;;2.77;75.01
37200;BME280;23096;50.892;16.746;2023-02-02T01:07:31;98569.92;;;2.76;75.03
37200;BME280;23096;50.892;16.746;2023-02-02T01:09:57;98565.50;;;2.77;74.96
37200;BME280;23096;50.892;16.746;2023-02-02T01:12:22;98570.92;;;2.77;74.89
37200;BME280;23096;50.892;16.746;2023-02-02T01:14:47;98565.66;;;2.78;74.86
37200;BME280;23096;50.892;16.746;2023-02-02T01:17:13;98566.51;;;2.78;75.05
37200;BME280;23096;50.892;16.746;2023-02-02T01:19:38;98569.73;;;2.79;74.87
37200;BME280;23096;50.892;16.746;2023-02-02T01:22:05;98562.91;;;2.80;74.95
37200;BME280;23096;50.892;16.746;2023-02-02T01:24:30;98562.56;;;2.81;74.98
37200;BME280;23096;50.892;16.746;2023-02-02T01:26:56;98564.08;;;2.83;74.91
37200;BME280;23096;50.892;16.746;2023-02-02T01:29:23;98564.73;;;2.84;74.96
37200;BME280;23096;50.892;16.746;2023-02-02T01:31:48;98565.41;;;2.84;74.88
37200;BME280;23096;50.892;16.746;2023-02-02T01:34:13;98569.82;;;2.86;74.88
37200;BME280;23096;50.892;16.746;2023-02-02T01:36:40;98572.87;;;2.86;74.82
37200;BME280;23096;50.892;16.746;2023-02-02T01:39:06;98575.40;;;2.87;74.75
37200;BME280;23096;50.892;16.746;2023-02-02T01:41:31;98578.42;;;2.88;74.72
37200;BME280;23096;50.892;16.746;2023-02-02T01:44:00;98582.67;;;2.90;74.79
37200;BME280;23096;50.892;16.746;2023-02-02T01:46:32;98575.70;;;2.91;74.70
37200;BME280;23096;50.892;16.746;2023-02-02T01:49:17;98576.35;;;2.93;74.68
37200;BME280;23096;50.892;16.746;2023-02-02T01:54:13;98578.19;;;2.96;74.55
37200;BME280;23096;50.892;16.746;2023-02-02T01:56:41;98572.56;;;2.97;74.55
37200;BME280;23096;50.892;16.746;2023-02-02T01:59:09;98565.42;;;3.00;74.56
37200;BME280;23096;50.892;16.746;2023-02-02T02:01:38;98563.19;;;3.01;74.65
37200;BME280;23096;50.892;16.746;2023-02-02T02:04:04;98563.17;;;3.02;74.49
37200;BME280;23096;50.892;16.746;2023-02-02T02:06:30;98550.10;;;3.03;74.38
37200;BME280;23096;50.892;16.746;2023-02-02T02:08:56;98545.16;;;3.04;74.41
37200;BME280;23096;50.892;16.746;2023-02-02T02:11:24;98546.67;;;3.06;74.35
37200;BME280;23096;50.892;16.746;2023-02-02T02:13:50;98551.39;;;3.08;74.40
37200;BME280;23096;50.892;16.746;2023-02-02T02:22:24;98554.59;;;3.10;74.17
37200;BME280;23096;50.892;16.746;2023-02-02T02:25:29;98548.83;;;3.10;74.28
37200;BME280;23096;50.892;16.746;2023-02-02T02:38:40;98542.13;;;3.15;73.92
37200;BME280;23096;50.892;16.746;2023-02-02T02:41:07;98539.94;;;3.15;73.94
37200;BME280;23096;50.892;16.746;2023-02-02T02:43:40;98544.50;;;3.16;73.90
37200;BME280;23096;50.892;16.746;2023-02-02T02:46:07;98544.66;;;3.17;73.93
37200;BME280;23096;50.892;16.746;2023-02-02T02:48:33;98540.58;;;3.18;73.88
37200;BME280;23096;50.892;16.746;2023-02-02T02:51:08;98542.26;;;3.18;73.87
37200;BME280;23096;50.892;16.746;2023-02-02T02:53:51;98545.49;;;3.18;73.70
37200;BME280;23096;50.892;16.746;2023-02-02T02:57:00;98540.25;;;3.17;73.80
37200;BME280;23096;50.892;16.746;2023-02-02T02:59:07;98538.89;;;3.17;73.79
37200;BME280;23096;50.892;16.746;2023-02-02T03:07:06;98539.19;;;3.20;73.65
37200;BME280;23096;50.892;16.746;2023-02-02T03:09:32;98529.66;;;3.22;73.69
37200;BME280;23096;50.892;16.746;2023-02-02T03:12:00;98527.58;;;3.24;73.63
37200;BME280;23096;50.892;16.746;2023-02-02T03:14:25;98531.48;;;3.24;73.53
37200;BME280;23096;50.892;16.746;2023-02-02T03:16:51;98530.12;;;3.24;73.41
37200;BME280;23096;50.892;16.746;2023-02-02T03:19:16;98533.17;;;3.24;73.49
37200;BME280;23096;50.892;16.746;2023-02-02T03:21:42;98533.17;;;3.25;73.45
37200;BME280;23096;50.892;16.746;2023-02-02T03:24:08;98533.48;;;3.27;73.38
37200;BME280;23096;50.892;16.746;2023-02-02T03:26:34;98524.81;;;3.28;73.36
37200;BME280;23096;50.892;16.746;2023-02-02T03:28:59;98525.69;;;3.27;73.21
37200;BME280;23096;50.892;16.746;2023-02-02T03:31:26;98529.91;;;3.27;73.11
37200;BME280;23096;50.892;16.746;2023-02-02T03:33:52;98527.20;;;3.27;73.09
37200;BME280;23096;50.892;16.746;2023-02-02T03:36:17;98519.88;;;3.30;73.12
37200;BME280;23096;50.892;16.746;2023-02-02T03:38:43;98522.06;;;3.31;73.02
37200;BME280;23096;50.892;16.746;2023-02-02T03:41:08;98519.33;;;3.32;73.08
37200;BME280;23096;50.892;16.746;2023-02-02T03:43:33;98513.88;;;3.33;72.96
37200;BME280;23096;50.892;16.746;2023-02-02T03:46:00;98517.25;;;3.36;72.88
37200;BME280;23096;50.892;16.746;2023-02-02T03:48:26;98512.30;;;3.37;72.96
37200;BME280;23096;50.892;16.746;2023-02-02T03:50:51;98507.55;;;3.37;72.87
37200;BME280;23096;50.892;16.746;2023-02-02T03:53:17;98509.23;;;3.38;72.81
37200;BME280;23096;50.892;16.746;2023-02-02T03:55:42;98506.31;;;3.39;72.84
37200;BME280;23096;50.892;16.746;2023-02-02T03:58:07;98498.16;;;3.40;72.74
37200;BME280;23096;50.892;16.746;2023-02-02T04:00:33;98505.29;;;3.41;72.70
37200;BME280;23096;50.892;16.746;2023-02-02T04:02:58;98510.02;;;3.42;72.78
37200;BME280;23096;50.892;16.746;2023-02-02T04:05:26;98500.15;;;3.43;72.64
37200;BME280;23096;50.892;16.746;2023-02-02T04:07:52;98498.60;;;3.44;72.69
37200;BME280;23096;50.892;16.746;2023-02-02T04:10:17;98499.93;;;3.46;72.54
37200;BME280;23096;50.892;16.746;2023-02-02T04:12:43;98501.30;;;3.47;72.55
37200;BME280;23096;50.892;16.746;2023-02-02T04:15:08;98493.30;;;3.48;72.55
37200;BME280;23096;50.892;16.746;2023-02-02T04:17:34;98489.89;;;3.49;72.47
37200;BME280;23096;50.892;16.746;2023-02-02T04:20:00;98490.39;;;3.49;72.43
37200;BME280;23096;50.892;16.746;2023-02-02T04:22:25;98489.86;;;3.51;72.45
37200;BME280;23096;50.892;16.746;2023-02-02T04:24:51;98485.61;;;3.51;72.38
37200;BME280;23096;50.892;16.746;2023-02-02T04:27:16;98485.59;;;3.51;72.30
37200;BME280;23096;50.892;16.746;2023-02-02T04:29:41;98489.67;;;3.52;72.45
37200;BME280;23096;50.892;16.746;2023-02-02T04:32:07;98487.10;;;3.53;72.25
37200;BME280;23096;50.892;16.746;2023-02-02T04:34:32;98486.27;;;3.53;72.20
37200;BME280;23096;50.892;16.746;2023-02-02T04:36:58;98484.05;;;3.53;72.29
37200;BME280;23096;50.892;16.746;2023-02-02T04:39:23;98484.04;;;3.54;72.10
37200;BME280;23096;50.892;16.746;2023-02-02T04:41:48;98471.30;;;3.54;72.16
37200;BME280;23096;50.892;16.746;2023-02-02T04:44:14;98477.73;;;3.55;72.18
37200;BME280;23096;50.892;16.746;2023-02-02T04:46:42;98480.95;;;3.55;72.04
37200;BME280;23096;50.892;16.746;2023-02-02T04:49:09;98476.19;;;3.56;72.05
37200;BME280;23096;50.892;16.746;2023-02-02T04:51:35;98480.06;;;3.58;72.05
37200;BME280;23096;50.892;16.746;2023-02-02T04:54:01;98480.38;;;3.59;72.04
37200;BME280;23096;50.892;16.746;2023-02-02T04:56:26;98475.25;;;3.61;71.98
37200;BME280;23096;50.892;16.746;2023-02-02T04:58:53;98480.13;;;3.64;71.96
37200;BME280;23096;50.892;16.746;2023-02-02T05:01:19;98484.33;;;3.67;71.89
37200;BME280;23096;50.892;16.746;2023-02-02T05:03:45;98497.55;;;3.70;71.91
37200;BME280;23096;50.892;16.746;2023-02-02T05:06:11;98482.92;;;3.71;71.90
37200;BME280;23096;50.892;16.746;2023-02-02T05:08:36;98471.52;;;3.72;71.90
37200;BME280;23096;50.892;16.746;2023-02-02T05:11:12;98480.18;;;3.72;71.95
37200;BME280;23096;50.892;16.746;2023-02-02T05:13:38;98486.77;;;3.73;71.82
37200;BME280;23096;50.892;16.746;2023-02-02T05:16:04;98483.88;;;3.75;71.68
37200;BME280;23096;50.892;16.746;2023-02-02T05:18:30;98487.92;;;3.76;71.66
37200;BME280;23096;50.892;16.746;2023-02-02T05:20:59;98485.86;;;3.77;71.62
37200;BME280;23096;50.892;16.746;2023-02-02T05:26:26;98485.83;;;3.80;71.69
37200;BME280;23096;50.892;16.746;2023-02-02T05:28:52;98483.60;;;3.81;71.57
37200;BME280;23096;50.892;16.746;2023-02-02T05:31:18;98493.96;;;3.81;71.56
37200;BME280;23096;50.892;16.746;2023-02-02T05:33:43;98497.00;;;3.82;71.59
37200;BME280;23096;50.892;16.746;2023-02-02T05:36:09;98496.48;;;3.83;71.42
37200;BME280;23096;50.892;16.746;2023-02-02T05:38:35;98497.83;;;3.83;71.32
37200;BME280;23096;50.892;16.746;2023-02-02T05:41:00;98500.70;;;3.84;71.36
37200;BME280;23096;50.892;16.746;2023-02-02T05:43:27;98504.61;;;3.84;71.35
37200;BME280;23096;50.892;16.746;2023-02-02T05:45:53;98496.79;;;3.84;71.33
37200;BME280;23096;50.892;16.746;2023-02-02T05:48:22;98499.67;;;3.84;71.31
37200;BME280;23096;50.892;16.746;2023-02-02T05:50:58;98498.33;;;3.84;71.28
37200;BME280;23096;50.892;16.746;2023-02-02T05:53:28;98485.24;;;3.84;71.31
37200;BME280;23096;50.892;16.746;2023-02-02T05:55:54;98486.61;;;3.83;71.28
37200;BME280;23096;50.892;16.746;2023-02-02T05:58:19;98494.07;;;3.84;71.20
37200;BME280;23096;50.892;16.746;2023-02-02T06:00:44;98498.31;;;3.85;71.14
37200;BME280;23096;50.892;16.746;2023-02-02T06:03:10;98503.42;;;3.84;71.09
37200;BME280;23096;50.892;16.746;2023-02-02T06:05:37;98503.93;;;3.84;71.14
37200;BME280;23096;50.892;16.746;2023-02-02T06:08:02;98506.48;;;3.83;71.04
37200;BME280;23096;50.892;16.746;2023-02-02T06:10:28;98504.45;;;3.84;71.07
37200;BME280;23096;50.892;16.746;2023-02-02T06:12:55;98505.98;;;3.84;70.94
37200;BME280;23096;50.892;16.746;2023-02-02T06:15:21;98513.64;;;3.83;70.89
37200;BME280;23096;50.892;16.746;2023-02-02T06:17:46;98512.80;;;3.82;71.00
37200;BME280;23096;50.892;16.746;2023-02-02T06:20:11;98519.44;;;3.81;71.09
37200;BME280;23096;50.892;16.746;2023-02-02T06:22:37;98523.17;;;3.81;70.92
37200;BME280;23096;50.892;16.746;2023-02-02T06:25:02;98535.75;;;3.81;71.01
37200;BME280;23096;50.892;16.746;2023-02-02T06:27:30;98540.69;;;3.81;70.98
37200;BME280;23096;50.892;16.746;2023-02-02T06:29:55;98540.67;;;3.80;70.85
37200;BME280;23096;50.892;16.746;2023-02-02T06:32:21;98539.33;;;3.81;71.00
37200;BME280;23096;50.892;16.746;2023-02-02T06:34:46;98554.77;;;3.82;71.05
37200;BME280;23096;50.892;16.746;2023-02-02T06:37:12;98552.75;;;3.81;71.01
37200;BME280;23096;50.892;16.746;2023-02-02T06:39:37;98552.05;;;3.81;71.06
37200;BME280;23096;50.892;16.746;2023-02-02T06:42:02;98549.16;;;3.82;70.97
37200;BME280;23096;50.892;16.746;2023-02-02T06:44:28;98555.77;;;3.83;71.01
37200;BME280;23096;50.892;16.746;2023-02-02T06:46:53;98557.98;;;3.83;70.98
37200;BME280;23096;50.892;16.746;2023-02-02T06:49:19;98553.23;;;3.82;70.98
37200;BME280;23096;50.892;16.746;2023-02-02T06:51:45;98567.66;;;3.83;70.87
37200;BME280;23096;50.892;16.746;2023-02-02T06:54:11;98572.42;;;3.82;70.90
37200;BME280;23096;50.892;16.746;2023-02-02T06:56:36;98567.69;;;3.81;70.92
37200;BME280;23096;50.892;16.746;2023-02-02T06:59:02;98573.15;;;3.79;70.79
37200;BME280;23096;50.892;16.746;2023-02-02T07:01:27;98575.11;;;3.74;71.00
37200;BME280;23096;50.892;16.746;2023-02-02T07:03:53;98572.27;;;3.70;70.85
37200;BME280;23096;50.892;16.746;2023-02-02T07:06:22;98578.79;;;3.66;70.91
37200;BME280;23096;50.892;16.746;2023-02-02T07:08:48;98576.29;;;3.63;70.99
37200;BME280;23096;50.892;16.746;2023-02-02T07:11:15;98581.61;;;3.59;70.92
37200;BME280;23096;50.892;16.746;2023-02-02T07:13:40;98582.02;;;3.54;70.99
37200;BME280;23096;50.892;16.746;2023-02-02T07:16:06;98595.45;;;3.53;71.17
37200;BME280;23096;50.892;16.746;2023-02-02T07:18:33;98600.73;;;3.51;71.18
37200;BME280;23096;50.892;16.746;2023-02-02T07:21:01;98605.00;;;3.50;71.18
37200;BME280;23096;50.892;16.746;2023-02-02T07:23:27;98612.48;;;3.50;71.34
37200;BME280;23096;50.892;16.746;2023-02-02T07:25:59;98616.19;;;3.52;71.35
37200;BME280;23096;50.892;16.746;2023-02-02T07:28:25;98617.69;;;3.54;71.55
37200;BME280;23096;50.892;16.746;2023-02-02T07:30:51;98622.05;;;3.57;71.42
37200;BME280;23096;50.892;16.746;2023-02-02T07:33:16;98619.48;;;3.58;71.53
37200;BME280;23096;50.892;16.746;2023-02-02T07:35:41;98633.41;;;3.59;71.53
37200;BME280;23096;50.892;16.746;2023-02-02T07:38:07;98632.55;;;3.59;71.57
37200;BME280;23096;50.892;16.746;2023-02-02T07:40:32;98642.08;;;3.59;71.61
37200;BME280;23096;50.892;16.746;2023-02-02T07:43:05;98642.10;;;3.57;71.63
37200;BME280;23096;50.892;16.746;2023-02-02T07:45:31;98644.48;;;3.57;71.69
37200;BME280;23096;50.892;16.746;2023-02-02T07:47:57;98647.20;;;3.56;71.64
37200;BME280;23096;50.892;16.746;2023-02-02T07:50:22;98648.77;;;3.54;71.70
37200;BME280;23096;50.892;16.746;2023-02-02T07:52:48;98653.70;;;3.52;71.67
37200;BME280;23096;50.892;16.746;2023-02-02T07:55:13;98654.59;;;3.49;71.63
37200;BME280;23096;50.892;16.746;2023-02-02T07:57:38;98657.67;;;3.49;71.71
37200;BME280;23096;50.892;16.746;2023-02-02T08:00:04;98660.06;;;3.47;71.76
37200;BME280;23096;50.892;16.746;2023-02-02T08:02:37;98657.20;;;3.45;71.76
37200;BME280;23096;50.892;16.746;2023-02-02T08:05:02;98667.25;;;3.41;71.79
37200;BME280;23096;50.892;16.746;2023-02-02T08:07:29;98669.30;;;3.41;71.96
37200;BME280;23096;50.892;16.746;2023-02-02T08:09:56;98677.30;;;3.39;71.92
37200;BME280;23096;50.892;16.746;2023-02-02T08:12:21;98679.02;;;3.37;71.96
37200;BME280;23096;50.892;16.746;2023-02-02T08:14:48;98686.17;;;3.36;72.11
37200;BME280;23096;50.892;16.746;2023-02-02T08:17:13;98687.54;;;3.36;72.20
37200;BME280;23096;50.892;16.746;2023-02-02T08:19:39;98685.65;;;3.37;72.26
37200;BME280;23096;50.892;16.746;2023-02-02T08:22:04;98690.22;;;3.39;72.29
37200;BME280;23096;50.892;16.746;2023-02-02T08:24:30;98690.05;;;3.39;72.35
37200;BME280;23096;50.892;16.746;2023-02-02T08:26:55;98685.77;;;3.41;72.41
37200;BME280;23096;50.892;16.746;2023-02-02T08:29:21;98681.64;;;3.44;72.48
37200;BME280;23096;50.892;16.746;2023-02-02T08:31:46;98685.67;;;3.49;72.64
37200;BME280;23096;50.892;16.746;2023-02-02T08:34:12;98692.38;;;3.56;72.76
37200;BME280;23096;50.892;16.746;2023-02-02T08:36:38;98698.75;;;3.63;72.74
37200;BME280;23096;50.892;16.746;2023-02-02T08:39:05;98700.90;;;3.68;72.65
37200;BME280;23096;50.892;16.746;2023-02-02T08:41:32;98702.73;;;3.72;72.65
37200;BME280;23096;50.892;16.746;2023-02-02T08:43:57;98712.21;;;3.74;72.68
37200;BME280;23096;50.892;16.746;2023-02-02T08:46:25;98721.37;;;3.75;72.69
37200;BME280;23096;50.892;16.746;2023-02-02T08:48:50;98723.23;;;3.75;72.53
37200;BME280;23096;50.892;16.746;2023-02-02T08:51:17;98725.25;;;3.77;72.65
37200;BME280;23096;50.892;16.746;2023-02-02T08:53:43;98731.35;;;3.79;72.68
37200;BME280;23096;50.892;16.746;2023-02-02T08:56:10;98733.88;;;3.81;72.70
37200;BME280;23096;50.892;16.746;2023-02-02T08:58:36;98724.15;;;3.83;72.63
37200;BME280;23096;50.892;16.746;2023-02-02T09:01:15;98726.67;;;3.85;72.63
37200;BME280;23096;50.892;16.746;2023-02-02T09:03:40;98729.25;;;3.84;72.63
37200;BME280;23096;50.892;16.746;2023-02-02T09:06:07;98731.12;;;3.82;72.52
37200;BME280;23096;50.892;16.746;2023-02-02T09:08:33;98736.42;;;3.81;72.57
37200;BME280;23096;50.892;16.746;2023-02-02T09:11:08;98744.58;;;3.80;72.53
37200;BME280;23096;50.892;16.746;2023-02-02T09:13:35;98738.97;;;3.80;72.55
37200;BME280;23096;50.892;16.746;2023-02-02T09:16:08;98745.95;;;3.81;72.51
37200;BME280;23096;50.892;16.746;2023-02-02T09:18:33;98754.08;;;3.82;72.61
37200;BME280;23096;50.892;16.746;2023-02-02T09:21:03;98749.46;;;3.84;72.53
37200;BME280;23096;50.892;16.746;2023-02-02T09:23:38;98756.24;;;3.85;72.61
37200;BME280;23096;50.892;16.746;2023-02-02T09:26:15;98759.29;;;3.87;72.58
37200;BME280;23096;50.892;16.746;2023-02-02T09:28:42;98768.30;;;3.86;72.53
37200;BME280;23096;50.892;16.746;2023-02-02T09:31:08;98773.04;;;3.87;72.51
37200;BME280;23096;50.892;16.746;2023-02-02T09:33:34;98777.79;;;3.88;72.60
37200;BME280;23096;50.892;16.746;2023-02-02T09:36:06;98783.70;;;3.90;72.54
37200;BME280;23096;50.892;16.746;2023-02-02T09:38:32;98786.09;;;3.90;72.53
37200;BME280;23096;50.892;16.746;2023-02-02T09:40:58;98801.20;;;3.91;72.51
37200;BME280;23096;50.892;16.746;2023-02-02T09:51:17;98812.08;;;3.90;72.60
37200;BME280;23096;50.892;16.746;2023-02-02T09:53:49;98806.63;;;3.93;72.62
37200;BME280;23096;50.892;16.746;2023-02-02T09:56:27;98807.58;;;3.99;72.66
37200;BME280;23096;50.892;16.746;2023-02-02T09:58:57;98817.20;;;4.04;72.65
37200;BME280;23096;50.892;16.746;2023-02-02T10:01:25;98815.09;;;4.10;72.67
37200;BME280;23096;50.892;16.746;2023-02-02T10:04:09;98815.72;;;4.13;72.72
37200;BME280;23096;50.892;16.746;2023-02-02T10:06:38;98820.82;;;4.13;72.52
37200;BME280;23096;50.892;16.746;2023-02-02T10:11:35;98821.42;;;4.06;72.40
37200;BME280;23096;50.892;16.746;2023-02-02T10:14:09;98823.14;;;4.05;72.41
37200;BME280;23096;50.892;16.746;2023-02-02T10:16:36;98835.69;;;4.07;72.50
37200;BME280;23096;50.892;16.746;2023-02-02T10:19:03;98848.06;;;4.09;72.47
37200;BME280;23096;50.892;16.746;2023-02-02T10:21:48;98837.83;;;4.13;72.50
37200;BME280;23096;50.892;16.746;2023-02-02T10:24:19;98845.06;;;4.18;72.41
37200;BME280;23096;50.892;16.746;2023-02-02T10:26:47;98846.08;;;4.20;72.31
37200;BME280;23096;50.892;16.746;2023-02-02T10:41:43;98861.11;;;4.28;71.98
37200;BME280;23096;50.892;16.746;2023-02-02T10:46:45;98866.14;;;4.33;71.81
37200;BME280;23096;50.892;16.746;2023-02-02T10:52:20;98866.96;;;4.35;71.77
37200;BME280;23096;50.892;16.746;2023-02-02T10:57:11;98874.67;;;4.30;71.56
37200;BME280;23096;50.892;16.746;2023-02-02T10:59:51;98881.16;;;4.28;71.56
37200;BME280;23096;50.892;16.746;2023-02-02T11:02:20;98883.75;;;4.25;71.48
37200;BME280;23096;50.892;16.746;2023-02-02T11:04:45;98882.11;;;4.20;71.39
37200;BME280;23096;50.892;16.746;2023-02-02T11:07:29;98884.36;;;4.16;71.44
37200;BME280;23096;50.892;16.746;2023-02-02T11:09:55;98884.55;;;4.15;71.25
37200;BME280;23096;50.892;16.746;2023-02-02T11:14:58;98899.80;;;4.18;71.24
37200;BME280;23096;50.892;16.746;2023-02-02T11:17:26;98899.60;;;4.22;71.25
37200;BME280;23096;50.892;16.746;2023-02-02T11:19:51;98902.43;;;4.27;71.20
37200;BME280;23096;50.892;16.746;2023-02-02T11:24:49;98899.31;;;4.17;70.96
37200;BME280;23096;50.892;16.746;2023-02-02T11:27:16;98903.82;;;4.10;71.00
37200;BME280;23096;50.892;16.746;2023-02-02T11:29:45;98917.27;;;4.08;71.06
37200;BME280;23096;50.892;16.746;2023-02-02T11:37:28;98925.11;;;4.07;71.11
37200;BME280;23096;50.892;16.746;2023-02-02T11:39:54;98933.65;;;4.03;71.07
37200;BME280;23096;50.892;16.746;2023-02-02T11:42:42;98934.17;;;4.02;71.08
37200;BME280;23096;50.892;16.746;2023-02-02T11:45:13;98937.23;;;4.02;71.16
37200;BME280;23096;50.892;16.746;2023-02-02T11:47:40;98946.62;;;3.96;71.13
37200;BME280;23096;50.892;16.746;2023-02-02T11:50:06;98950.69;;;3.80;70.96
37200;BME280;23096;50.892;16.746;2023-02-02T11:52:40;98968.91;;;3.53;70.76
37200;BME280;23096;50.892;16.746;2023-02-02T11:55:14;98959.82;;;3.21;70.88
37200;BME280;23096;50.892;16.746;2023-02-02T11:57:41;98960.94;;;3.03;71.15
37200;BME280;23096;50.892;16.746;2023-02-02T12:00:27;98962.34;;;2.96;71.43
37200;BME280;23096;50.892;16.746;2023-02-02T12:02:53;98966.59;;;2.95;71.56
37200;BME280;23096;50.892;16.746;2023-02-02T12:07:44;98970.97;;;3.01;71.97
37200;BME280;23096;50.892;16.746;2023-02-02T12:10:53;98975.85;;;3.07;71.97
37200;BME280;23096;50.892;16.746;2023-02-02T12:13:46;98972.90;;;3.17;72.18
37200;BME280;23096;50.892;16.746;2023-02-02T12:16:00;98971.48;;;3.29;72.28
37200;BME280;23096;50.892;16.746;2023-02-02T12:21:05;98978.27;;;3.53;72.30
37200;BME280;23096;50.892;16.746;2023-02-02T12:36:00;98989.77;;;4.00;72.11
37200;BME280;23096;50.892;16.746;2023-02-02T12:41:01;98985.75;;;4.11;72.08
37200;BME280;23096;50.892;16.746;2023-02-02T12:43:37;98991.33;;;4.15;72.02
37200;BME280;23096;50.892;16.746;2023-02-02T13:09:21;99023.02;;;4.24;70.19
37200;BME280;23096;50.892;16.746;2023-02-02T13:14:19;99030.28;;;4.29;69.97
37200;BME280;23096;50.892;16.746;2023-02-02T13:16:49;99039.95;;;4.31;69.84
37200;BME280;23096;50.892;16.746;2023-02-02T13:19:20;99038.94;;;4.33;69.67
37200;BME280;23096;50.892;16.746;2023-02-02T13:21:49;99045.05;;;4.34;69.59
37200;BME280;23096;50.892;16.746;2023-02-02T13:24:18;99048.79;;;4.34;69.45
37200;BME280;23096;50.892;16.746;2023-02-02T13:26:45;99054.23;;;4.33;69.33
37200;BME280;23096;50.892;16.746;2023-02-02T13:32:03;99059.55;;;4.30;69.13
37200;BME280;23096;50.892;16.746;2023-02-02T13:36:56;99052.73;;;4.29;68.82
37200;BME280;23096;50.892;16.746;2023-02-02T13:39:28;99056.15;;;4.28;68.71
37200;BME280;23096;50.892;16.746;2023-02-02T13:41:58;99066.02;;;4.27;68.65
37200;BME280;23096;50.892;16.746;2023-02-02T13:44:33;99075.89;;;4.26;68.52
37200;BME280;23096;50.892;16.746;2023-02-02T13:47:01;99078.62;;;4.25;68.43
37200;BME280;23096;50.892;16.746;2023-02-02T13:49:40;99076.07;;;4.24;68.44
37200;BME280;23096;50.892;16.746;2023-02-02T13:57:27;99079.50;;;4.21;68.38
37200;BME280;23096;50.892;16.746;2023-02-02T14:05:05;99083.44;;;4.18;68.39
37200;BME280;23096;50.892;16.746;2023-02-02T14:09:57;99102.52;;;4.13;68.26
37200;BME280;23096;50.892;16.746;2023-02-02T14:12:27;99111.21;;;4.10;68.20
37200;BME280;23096;50.892;16.746;2023-02-02T14:14:54;99116.34;;;4.06;68.12
37200;BME280;23096;50.892;16.746;2023-02-02T14:19:49;99136.44;;;4.01;68.13
37200;BME280;23096;50.892;16.746;2023-02-02T14:24:47;99146.34;;;3.92;67.97
37200;BME280;23096;50.892;16.746;2023-02-02T14:34:50;99169.04;;;3.78;68.31
37200;BME280;23096;50.892;16.746;2023-02-02T14:40:29;99181.30;;;3.72;68.46
37200;BME280;23096;50.892;16.746;2023-02-02T14:47:55;99188.48;;;3.64;68.71
37200;BME280;23096;50.892;16.746;2023-02-02T14:52:57;99193.24;;;3.62;68.93
37200;BME280;23096;50.892;16.746;2023-02-02T14:55:24;99198.69;;;3.63;68.98
37200;BME280;23096;50.892;16.746;2023-02-02T14:57:57;99201.39;;;3.62;69.11
37200;BME280;23096;50.892;16.746;2023-02-02T15:00:30;99206.67;;;3.61;69.10
37200;BME280;23096;50.892;16.746;2023-02-02T15:03:19;99211.27;;;3.61;69.23
37200;BME280;23096;50.892;16.746;2023-02-02T15:05:42;99212.95;;;3.61;69.19
37200;BME280;23096;50.892;16.746;2023-02-02T15:08:19;99221.13;;;3.60;69.25
37200;BME280;23096;50.892;16.746;2023-02-02T15:13:16;99226.06;;;3.53;69.43
37200;BME280;23096;50.892;16.746;2023-02-02T15:15:43;99230.83;;;3.52;69.43
37200;BME280;23096;50.892;16.746;2023-02-02T15:18:17;99238.48;;;3.48;69.46
37200;BME280;23096;50.892;16.746;2023-02-02T15:20:48;99245.13;;;3.43;69.51
37200;BME280;23096;50.892;16.746;2023-02-02T15:23:17;99251.08;;;3.38;69.61
37200;BME280;23096;50.892;16.746;2023-02-02T15:28:39;99274.20;;;3.27;69.73
37200;BME280;23096;50.892;16.746;2023-02-02T15:31:13;99280.33;;;3.21;69.85
37200;BME280;23096;50.892;16.746;2023-02-02T15:33:42;99283.39;;;3.17;69.93
37200;BME280;23096;50.892;16.746;2023-02-02T15:36:09;99300.87;;;3.14;70.01
37200;BME280;23096;50.892;16.746;2023-02-02T15:38:37;99310.71;;;3.09;69.96
37200;BME280;23096;50.892;16.746;2023-02-02T15:41:04;99313.44;;;3.01;70.03
37200;BME280;23096;50.892;16.746;2023-02-02T15:43:31;99325.31;;;2.94;70.06
37200;BME280;23096;50.892;16.746;2023-02-02T15:46:03;99333.29;;;2.85;70.06
37200;BME280;23096;50.892;16.746;2023-02-02T15:48:32;99343.45;;;2.71;70.17